Time;durP1;ratioP1;P1;durP2;ratioP2;P2;SDS_P1;SDS_P2;PMS_P1;PMS_P2;Temp;Humidity;BMP_temperature;BMP_pressure;BME280_temperature;BME280_humidity;BME280_pressure;Samples;Min_cycle;Max_cycle;Signal;HPM_P1;HPM_P2
2023/04/29 00:01:31;;;;;;;7.82;5.15;;;12.00;98.00;;;;;;5084171;28;20028;-51
2023/04/29 00:03:57;;;;;;;6.90;4.57;;;11.90;96.80;;;;;;5067523;28;20035;-48
2023/04/29 00:06:22;;;;;;;5.18;4.30;;;11.90;96.80;;;;;;5083799;28;20024;-54
2023/04/29 00:08:48;;;;;;;6.28;4.63;;;11.90;97.80;;;;;;5068524;28;20086;-49
2023/04/29 00:11:14;;;;;;;5.63;4.20;;;11.90;97.20;;;;;;5086420;28;20032;-51
2023/04/29 00:13:41;;;;;;;6.75;5.57;;;11.90;95.80;;;;;;5066589;28;20043;-54
2023/04/29 00:16:10;;;;;;;6.80;5.38;;;11.90;98.50;;;;;;5084062;28;20025;-51
2023/04/29 00:18:36;;;;;;;8.07;5.88;;;11.90;97.60;;;;;;5077230;28;20032;-51
2023/04/29 00:21:04;;;;;;;6.93;5.15;;;11.80;99.90;;;;;;5085407;28;20066;-48
2023/04/29 00:23:32;;;;;;;7.70;4.85;;;11.80;97.80;;;;;;5067644;28;20045;-50
2023/04/29 00:25:58;;;;;;;11.43;6.00;;;11.90;97.00;;;;;;5081082;28;20031;-50
2023/04/29 00:28:24;;;;;;;7.00;5.00;;;11.90;98.50;;;;;;5073744;28;20040;-54
2023/04/29 00:30:50;;;;;;;8.05;4.93;;;11.90;97.60;;;;;;5086822;28;20034;-59
2023/04/29 00:33:15;;;;;;;8.18;5.00;;;11.90;96.40;;;;;;5067438;28;20032;-57
2023/04/29 00:35:41;;;;;;;7.38;4.60;;;11.90;96.60;;;;;;5081928;28;20109;-57
2023/04/29 00:38:07;;;;;;;11.15;5.72;;;11.90;97.60;;;;;;5073164;28;20693;-57
2023/04/29 00:40:32;;;;;;;6.90;4.65;;;11.90;99.70;;;;;;5076123;28;20028;-56
2023/04/29 00:42:58;;;;;;;10.48;6.10;;;11.90;98.20;;;;;;5085481;28;20020;-57
2023/04/29 00:45:23;;;;;;;8.45;5.80;;;11.90;99.90;;;;;;5074321;28;20549;-57
2023/04/29 00:47:49;;;;;;;7.13;5.18;;;11.90;98.20;;;;;;5082855;28;20068;-57
2023/04/29 00:50:15;;;;;;;9.27;5.03;;;11.80;97.20;;;;;;5084624;28;20055;-57
2023/04/29 00:52:42;;;;;;;7.53;5.28;;;11.90;98.40;;;;;;5086809;28;20036;-59
2023/04/29 00:55:08;;;;;;;6.03;4.65;;;11.90;97.40;;;;;;5077585;28;20036;-58
2023/04/29 00:57:34;;;;;;;5.30;4.53;;;11.90;97.30;;;;;;5086966;28;20205;-57
2023/04/29 01:00:02;;;;;;;7.38;4.68;;;11.90;99.60;;;;;;5078157;28;20119;-58
2023/04/29 01:02:28;;;;;;;10.10;5.47;;;11.80;99.90;;;;;;5078646;28;20021;-58
2023/04/29 01:04:53;;;;;;;6.13;4.75;;;11.80;99.90;;;;;;5078528;28;20039;-56
2023/04/29 01:07:46;;;;;;;8.82;4.85;;;11.80;99.60;;;;;;5080255;28;20407;-56
2023/04/29 01:10:51;;;;;;;8.68;5.60;;;11.80;99.90;;;;;;5075876;28;20031;-60
2023/04/29 01:13:36;;;;;;;8.77;5.35;;;11.70;99.90;;;;;;5054791;28;20052;-57
2023/04/29 01:16:03;;;;;;;6.43;5.43;;;11.70;99.90;;;;;;5072885;28;20020;-56
2023/04/29 01:18:34;;;;;;;5.65;4.38;;;11.70;99.90;;;;;;5085938;28;20028;-59
2023/04/29 01:21:00;;;;;;;7.90;5.28;;;11.70;99.90;;;;;;5084649;28;20063;-58
2023/04/29 01:23:27;;;;;;;7.32;4.88;;;11.70;99.90;;;;;;5071560;28;20438;-59
2023/04/29 01:25:53;;;;;;;6.13;4.85;;;11.70;99.90;;;;;;5068946;28;20112;-56
2023/04/29 01:28:46;;;;;;;10.70;6.25;;;11.70;99.90;;;;;;5086221;28;20111;-57
2023/04/29 01:31:18;;;;;;;5.95;4.78;;;11.70;99.90;;;;;;5088850;28;20511;-58
2023/04/29 01:34:13;;;;;;;6.70;4.90;;;11.70;99.90;;;;;;5057385;28;20110;-59
2023/04/29 01:36:53;;;;;;;7.35;5.60;;;11.70;99.90;;;;;;5085329;28;20483;-56
2023/04/29 01:39:31;;;;;;;6.70;4.70;;;11.70;99.90;;;;;;5067206;28;20071;-56
2023/04/29 01:42:07;;;;;;;12.30;6.00;;;11.70;99.90;;;;;;5048917;28;20029;-57
2023/04/29 01:44:33;;;;;;;;;;;11.70;99.90;;;;;;5071487;28;20447;-55
2023/04/29 01:47:00;;;;;;;7.03;4.70;;;11.70;99.90;;;;;;5068769;28;19908;-56
2023/04/29 01:49:27;;;;;;;6.63;4.60;;;11.70;99.90;;;;;;5084797;28;20028;-57
2023/04/29 01:51:53;;;;;;;6.03;4.43;;;11.70;99.90;;;;;;5068924;28;20035;-57
2023/04/29 01:54:19;;;;;;;8.50;5.68;;;11.70;99.90;;;;;;5086201;28;20025;-57
2023/04/29 01:56:46;;;;;;;9.20;6.20;;;11.60;99.90;;;;;;5068911;28;20365;-56
2023/04/29 01:59:12;;;;;;;6.25;4.50;;;11.60;99.90;;;;;;5085700;28;20552;-58
2023/04/29 02:01:37;;;;;;;9.32;5.75;;;11.60;99.90;;;;;;5068904;28;20120;-55
2023/04/29 02:04:03;;;;;;;10.75;5.53;;;11.60;99.90;;;;;;5084544;28;20355;-55
2023/04/29 02:06:30;;;;;;;6.32;4.68;;;11.50;99.90;;;;;;5068479;28;20033;-57
2023/04/29 02:08:57;;;;;;;7.15;5.57;;;11.50;99.90;;;;;;5086337;28;20039;-55
2023/04/29 02:11:23;;;;;;;7.75;5.28;;;11.50;99.90;;;;;;5089026;28;20096;-58
2023/04/29 02:13:48;;;;;;;7.60;5.40;;;11.50;99.90;;;;;;5072984;28;20161;-56
2023/04/29 02:16:15;;;;;;;6.93;4.68;;;11.50;99.90;;;;;;5088512;28;20023;-54
2023/04/29 02:18:42;;;;;;;6.45;4.55;;;11.50;99.90;;;;;;5071737;28;20035;-58
2023/04/29 02:21:08;;;;;;;7.35;5.63;;;11.40;99.90;;;;;;5088404;28;20028;-57
2023/04/29 02:23:36;;;;;;;7.50;5.63;;;11.40;99.90;;;;;;5070765;28;20369;-55
2023/04/29 02:26:05;;;;;;;7.68;5.88;;;11.40;99.90;;;;;;5088587;28;20478;-60
2023/04/29 02:28:34;;;;;;;7.43;5.90;;;11.40;99.90;;;;;;5070007;28;20039;-56
2023/04/29 02:31:02;;;;;;;9.05;6.13;;;11.40;99.90;;;;;;5085609;28;20055;-57
2023/04/29 02:33:28;;;;;;;7.53;5.63;;;11.40;99.90;;;;;;5069380;28;20028;-56
2023/04/29 02:35:53;;;;;;;7.57;6.07;;;11.30;99.90;;;;;;5087836;28;20024;-57
2023/04/29 02:38:18;;;;;;;7.78;5.50;;;11.30;99.90;;;;;;5068488;28;20561;-56
2023/04/29 02:40:45;;;;;;;6.80;5.25;;;11.20;99.90;;;;;;5087940;28;20111;-54
2023/04/29 02:43:12;;;;;;;7.88;5.72;;;11.20;99.90;;;;;;5066969;28;20455;-57
2023/04/29 02:45:38;;;;;;;7.72;5.10;;;11.20;99.90;;;;;;5088081;28;20075;-58
2023/04/29 02:48:05;;;;;;;8.25;5.80;;;11.20;99.90;;;;;;5068260;28;20059;-57
2023/04/29 02:50:32;;;;;;;7.63;5.55;;;11.10;99.90;;;;;;5067769;28;20039;-57
2023/04/29 02:52:57;;;;;;;8.48;6.22;;;11.10;99.90;;;;;;5087413;28;20047;-56
2023/04/29 02:55:23;;;;;;;9.23;6.40;;;11.10;99.90;;;;;;5066567;28;20021;-59
2023/04/29 02:57:48;;;;;;;10.38;5.35;;;11.10;99.90;;;;;;5087067;28;20063;-57
2023/04/29 03:00:14;;;;;;;6.65;5.45;;;11.00;99.90;;;;;;5069417;28;20515;-58
2023/04/29 03:02:41;;;;;;;6.93;5.25;;;11.00;99.90;;;;;;5090673;28;20032;-56
2023/04/29 03:05:07;;;;;;;8.57;6.45;;;11.00;99.90;;;;;;5075018;28;20032;-54
2023/04/29 03:07:33;;;;;;;5.95;4.70;;;11.00;99.90;;;;;;5091513;28;20388;-54
2023/04/29 03:09:58;;;;;;;8.85;5.65;;;11.00;99.90;;;;;;5069979;28;20036;-56
2023/04/29 03:12:24;;;;;;;7.72;5.72;;;11.00;99.90;;;;;;5090786;28;20538;-59
2023/04/29 03:14:50;;;;;;;7.95;5.68;;;11.00;99.90;;;;;;5069664;28;20035;-58
2023/04/29 03:17:17;;;;;;;9.02;6.38;;;11.00;99.90;;;;;;5090790;28;20024;-59
2023/04/29 03:19:42;;;;;;;10.05;6.78;;;11.00;99.90;;;;;;5069296;28;20089;-52
2023/04/29 03:22:10;;;;;;;8.23;6.45;;;11.00;99.90;;;;;;5090369;28;20103;-57
2023/04/29 03:24:37;;;;;;;8.75;6.43;;;11.00;99.90;;;;;;5069133;28;20020;-55
2023/04/29 03:27:03;;;;;;;10.20;6.15;;;11.00;99.90;;;;;;5089089;28;20032;-56
2023/04/29 03:29:30;;;;;;;8.43;5.97;;;11.00;99.90;;;;;;5081365;28;20024;-55
2023/04/29 03:31:56;;;;;;;7.80;5.35;;;11.10;99.90;;;;;;5091462;28;20436;-58
2023/04/29 03:34:22;;;;;;;7.47;5.43;;;11.10;99.90;;;;;;5069711;28;20123;-56
2023/04/29 03:36:47;;;;;;;13.65;6.78;;;11.10;99.90;;;;;;5090512;28;20391;-55
2023/04/29 03:39:13;;;;;;;9.07;5.55;;;11.10;99.90;;;;;;5069440;28;20038;-57
2023/04/29 03:41:38;;;;;;;8.30;5.85;;;11.10;99.90;;;;;;5090507;28;20028;-56
2023/04/29 03:44:04;;;;;;;10.63;6.30;;;11.10;99.90;;;;;;5074457;28;20281;-55
2023/04/29 03:46:32;;;;;;;7.95;6.05;;;11.10;99.90;;;;;;5091029;28;20034;-58
2023/04/29 03:48:57;;;;;;;7.03;5.90;;;11.10;99.90;;;;;;5079812;28;20043;-56
2023/04/29 03:51:24;;;;;;;10.73;7.07;;;11.10;99.90;;;;;;5070843;28;20415;-57
2023/04/29 03:53:51;;;;;;;9.38;6.68;;;11.10;99.90;;;;;;5088297;28;20325;-58
2023/04/29 03:56:16;;;;;;;8.40;6.22;;;11.10;99.90;;;;;;5071055;28;20067;-55
2023/04/29 03:58:43;;;;;;;11.20;7.85;;;11.10;99.90;;;;;;5088153;28;20032;-58
2023/04/29 04:01:09;;;;;;;8.25;6.70;;;11.10;99.90;;;;;;5070839;28;20064;-57
2023/04/29 04:03:34;;;;;;;10.50;6.80;;;11.10;99.90;;;;;;5087757;28;20059;-58
2023/04/29 04:06:00;;;;;;;8.10;6.10;;;11.10;99.90;;;;;;5078070;28;20511;-55
2023/04/29 04:08:26;;;;;;;9.57;7.22;;;11.20;99.90;;;;;;5087941;28;20026;-57
2023/04/29 04:10:52;;;;;;;8.10;6.35;;;11.20;99.90;;;;;;5085837;28;20021;-55
2023/04/29 04:13:17;;;;;;;12.18;7.45;;;11.20;99.90;;;;;;5073599;28;20408;-57
2023/04/29 04:15:50;;;;;;;7.45;5.85;;;11.20;99.90;;;;;;5090143;28;20036;-56
2023/04/29 04:18:15;;;;;;;10.38;6.55;;;11.20;99.90;;;;;;5053229;28;20066;-55
2023/04/29 04:20:42;;;;;;;9.07;6.40;;;11.20;99.90;;;;;;5069019;28;20424;-58
2023/04/29 04:23:07;;;;;;;8.88;6.68;;;11.30;99.90;;;;;;5088019;28;20032;-57
2023/04/29 04:25:33;;;;;;;6.97;5.70;;;11.30;99.90;;;;;;5090505;28;20360;-57
2023/04/29 04:27:58;;;;;;;7.75;6.53;;;11.30;99.90;;;;;;5071186;28;20119;-55
2023/04/29 04:30:24;;;;;;;10.55;7.55;;;11.40;99.90;;;;;;5090146;28;20024;-57
2023/04/29 04:32:49;;;;;;;13.30;8.07;;;11.30;99.90;;;;;;5068805;28;20104;-57
2023/04/29 04:35:15;;;;;;;10.80;7.20;;;11.40;99.90;;;;;;5090120;28;20020;-55
2023/04/29 04:37:42;;;;;;;9.15;6.78;;;11.40;99.90;;;;;;5075368;28;20455;-56
2023/04/29 04:40:10;;;;;;;11.18;6.95;;;11.40;99.90;;;;;;5069554;28;20074;-58
2023/04/29 04:42:35;;;;;;;9.82;7.00;;;11.40;99.90;;;;;;5088011;28;20474;-57
2023/04/29 04:45:03;;;;;;;9.65;6.55;;;11.50;99.90;;;;;;5084093;28;20097;-58
2023/04/29 04:47:28;;;;;;;11.45;7.13;;;11.50;99.90;;;;;;5076616;28;20079;-57
2023/04/29 04:49:53;;;;;;;9.25;6.13;;;11.50;99.90;;;;;;5082944;28;20032;-57
2023/04/29 04:52:20;;;;;;;10.52;7.18;;;11.50;99.90;;;;;;5076710;28;20620;-57
2023/04/29 04:54:46;;;;;;;9.80;6.50;;;11.60;99.90;;;;;;5085802;28;20123;-53
2023/04/29 04:57:13;;;;;;;7.88;5.97;;;11.60;99.90;;;;;;5077758;28;20096;-58
2023/04/29 04:59:38;;;;;;;11.48;7.15;;;11.70;99.90;;;;;;5069373;28;20044;-55
2023/04/29 05:02:04;;;;;;;8.18;6.60;;;11.70;99.90;;;;;;5084496;28;20090;-57
2023/04/29 05:04:30;;;;;;;9.27;7.43;;;11.80;99.90;;;;;;5071691;28;20479;-55
2023/04/29 05:06:55;;;;;;;11.25;6.97;;;11.90;99.90;;;;;;5077775;28;20016;-57
2023/04/29 05:09:23;;;;;;;11.05;8.05;;;11.80;99.90;;;;;;5067314;28;20062;-56
2023/04/29 05:11:49;;;;;;;9.80;7.13;;;11.90;99.90;;;;;;5086370;28;20588;-55
2023/04/29 05:14:14;;;;;;;10.25;7.88;;;11.90;99.90;;;;;;5081843;28;20186;-56
2023/04/29 05:16:39;;;;;;;11.52;8.18;;;11.90;99.90;;;;;;5077944;28;20487;-57
2023/04/29 05:19:05;;;;;;;9.82;7.82;;;12.00;99.90;;;;;;5075751;28;20040;-55
2023/04/29 05:21:30;;;;;;;11.73;7.25;;;12.00;99.90;;;;;;5085699;28;20028;-57
2023/04/29 05:23:56;;;;;;;13.38;7.97;;;12.00;99.90;;;;;;5083808;28;20038;-57
2023/04/29 05:26:23;;;;;;;12.82;8.07;;;12.00;99.90;;;;;;5069392;28;20593;-58
2023/04/29 05:28:49;;;;;;;11.10;8.23;;;12.00;99.90;;;;;;5084381;28;20139;-57
2023/04/29 05:31:15;;;;;;;10.82;8.40;;;12.10;99.90;;;;;;5075777;28;20028;-56
2023/04/29 05:33:41;;;;;;;12.32;8.35;;;12.10;99.90;;;;;;5082065;28;20555;-55
2023/04/29 05:36:07;;;;;;;9.68;8.02;;;12.10;99.90;;;;;;5069312;28;20390;-57
2023/04/29 05:38:33;;;;;;;15.30;9.98;;;12.10;99.90;;;;;;5084101;28;20031;-55
2023/04/29 05:41:00;;;;;;;10.40;8.23;;;12.10;99.90;;;;;;5068369;28;20054;-56
2023/04/29 05:43:26;;;;;;;11.68;8.98;;;12.10;99.90;;;;;;5085643;28;20028;-57
2023/04/29 05:45:52;;;;;;;17.33;10.20;;;12.20;99.90;;;;;;5062775;28;20028;-59
2023/04/29 05:48:17;;;;;;;12.68;9.00;;;12.20;99.90;;;;;;5085685;28;20047;-57
2023/04/29 05:50:44;;;;;;;13.13;9.40;;;12.20;99.90;;;;;;5077433;28;20070;-56
2023/04/29 05:53:10;;;;;;;12.10;8.95;;;12.20;99.90;;;;;;5079998;28;20039;-56
2023/04/29 05:55:35;;;;;;;12.15;8.30;;;12.20;99.90;;;;;;5074847;28;20036;-56
2023/04/29 05:58:01;;;;;;;14.23;10.63;;;12.20;99.90;;;;;;5077909;28;20040;-55
2023/04/29 06:00:26;;;;;;;17.05;11.20;;;12.20;99.90;;;;;;5070546;28;20114;-53
2023/04/29 06:02:53;;;;;;;16.08;11.18;;;12.20;99.90;;;;;;5077708;28;20033;-52
2023/04/29 06:05:19;;;;;;;16.80;11.40;;;12.30;99.90;;;;;;5073700;28;20024;-53
2023/04/29 06:07:44;;;;;;;14.70;10.80;;;12.30;99.90;;;;;;5080970;28;20255;-56
2023/04/29 06:10:10;;;;;;;11.57;8.73;;;12.30;99.90;;;;;;5069846;28;20574;-57
2023/04/29 06:12:35;;;;;;;14.13;10.43;;;12.40;99.90;;;;;;5083720;28;20624;-58
2023/04/29 06:15:02;;;;;;;14.65;10.07;;;12.40;99.90;;;;;;5071836;28;20419;-57
2023/04/29 06:17:28;;;;;;;14.93;10.88;;;12.50;99.90;;;;;;5071296;28;20028;-57
2023/04/29 06:19:55;;;;;;;11.77;9.40;;;12.40;99.90;;;;;;5077528;28;20035;-58
2023/04/29 06:22:21;;;;;;;14.18;9.68;;;12.50;99.90;;;;;;5085815;28;20201;-57
2023/04/29 06:24:48;;;;;;;15.32;10.55;;;12.50;99.90;;;;;;5074602;28;20084;-57
2023/04/29 06:27:14;;;;;;;12.63;9.40;;;12.50;99.90;;;;;;5084692;28;20168;-55
2023/04/29 06:29:40;;;;;;;12.32;8.48;;;12.60;99.90;;;;;;5083618;28;20135;-55
2023/04/29 06:32:06;;;;;;;12.10;10.10;;;12.60;99.90;;;;;;5086164;28;20032;-52
2023/04/29 06:34:34;;;;;;;12.55;9.60;;;12.70;99.90;;;;;;5087484;28;20023;-55
2023/04/29 06:37:00;;;;;;;15.95;10.70;;;12.80;99.90;;;;;;5089950;28;20090;-57
2023/04/29 06:39:25;;;;;;;17.08;11.70;;;12.80;99.90;;;;;;5086394;28;20120;-56
2023/04/29 06:41:51;;;;;;;13.55;9.77;;;12.80;99.90;;;;;;5082123;28;20440;-57
2023/04/29 06:44:17;;;;;;;15.48;10.90;;;12.80;99.90;;;;;;5069221;28;20114;-55
2023/04/29 06:46:43;;;;;;;14.50;10.80;;;12.90;99.90;;;;;;5067861;28;20556;-57
2023/04/29 06:49:09;;;;;;;14.65;10.48;;;12.90;99.90;;;;;;5086918;28;20045;-57
2023/04/29 06:51:36;;;;;;;10.98;7.93;;;13.00;99.90;;;;;;5082105;28;20103;-55
2023/04/29 06:54:03;;;;;;;12.63;8.85;;;13.00;99.90;;;;;;5083992;28;20438;-56
2023/04/29 06:56:29;;;;;;;14.27;9.65;;;13.00;99.90;;;;;;5078140;28;20032;-53
2023/04/29 06:58:55;;;;;;;9.27;7.53;;;13.00;99.90;;;;;;5086655;28;20595;-52
2023/04/29 07:01:20;;;;;;;12.75;8.57;;;13.00;99.90;;;;;;5085572;28;20041;-56
2023/04/29 07:03:46;;;;;;;15.00;8.40;;;13.10;99.90;;;;;;5071076;28;20025;-56
2023/04/29 07:06:13;;;;;;;12.82;7.80;;;13.10;99.90;;;;;;5087208;28;20035;-57
2023/04/29 07:08:39;;;;;;;10.07;8.07;;;13.20;99.90;;;;;;5085580;28;20031;-56
2023/04/29 07:11:05;;;;;;;10.93;7.50;;;13.20;99.90;;;;;;5088382;28;20038;-57
2023/04/29 07:13:31;;;;;;;15.63;10.30;;;13.20;99.90;;;;;;5088069;28;20035;-55
2023/04/29 07:15:59;;;;;;;9.82;8.05;;;13.20;99.90;;;;;;5071331;28;20107;-54
2023/04/29 07:18:25;;;;;;;11.90;9.10;;;13.20;99.90;;;;;;5088782;28;20522;-53
2023/04/29 07:20:51;;;;;;;15.85;10.52;;;13.20;99.90;;;;;;5079088;28;20036;-55
2023/04/29 07:23:17;;;;;;;19.60;12.43;;;13.30;99.90;;;;;;5081195;28;20033;-57
2023/04/29 07:25:43;;;;;;;13.02;9.80;;;13.20;99.90;;;;;;5071596;28;20085;-56
2023/04/29 07:28:09;;;;;;;13.40;10.15;;;13.30;99.90;;;;;;5088767;28;20491;-55
2023/04/29 07:30:35;;;;;;;11.43;9.38;;;13.30;99.90;;;;;;5073786;28;20042;-56
2023/04/29 07:33:00;;;;;;;14.40;10.40;;;13.30;99.90;;;;;;5088598;28;20357;-56
2023/04/29 07:35:26;;;;;;;13.77;8.93;;;13.40;99.90;;;;;;5080429;28;20020;-55
2023/04/29 07:37:54;;;;;;;11.00;8.98;;;13.40;99.90;;;;;;5088358;28;20081;-55
2023/04/29 07:40:19;;;;;;;11.75;8.65;;;13.40;99.90;;;;;;5069300;28;20032;-58
2023/04/29 07:42:45;;;;;;;13.73;8.70;;;13.40;99.90;;;;;;5090131;28;20475;-58
2023/04/29 07:45:12;;;;;;;10.52;7.57;;;13.50;99.90;;;;;;5068988;28;20094;-57
2023/04/29 07:47:39;;;;;;;9.93;7.82;;;13.50;99.90;;;;;;5089189;28;20032;-57
2023/04/29 07:50:05;;;;;;;11.05;8.38;;;13.50;99.90;;;;;;5068579;28;20043;-58
2023/04/29 07:52:30;;;;;;;9.88;7.10;;;13.50;99.90;;;;;;5089953;28;20036;-58
2023/04/29 07:54:56;;;;;;;9.05;7.18;;;13.50;99.90;;;;;;5069007;28;20028;-54
2023/04/29 07:57:23;;;;;;;9.52;7.30;;;13.50;99.90;;;;;;5089620;28;20111;-57
2023/04/29 07:59:53;;;;;;;9.25;7.70;;;13.50;99.90;;;;;;5079555;28;20352;-57
2023/04/29 08:02:19;;;;;;;8.48;6.80;;;13.50;99.90;;;;;;5070640;28;20029;-57
2023/04/29 08:04:45;;;;;;;10.85;8.40;;;13.50;99.90;;;;;;5087770;28;20594;-59
2023/04/29 08:07:11;;;;;;;8.95;7.10;;;13.50;99.90;;;;;;5070610;28;20070;-56
2023/04/29 08:09:37;;;;;;;11.20;6.85;;;13.50;99.90;;;;;;5087941;28;20039;-53
2023/04/29 08:12:04;;;;;;;8.15;7.03;;;13.60;99.90;;;;;;5071053;28;20476;-56
2023/04/29 08:14:29;;;;;;;10.85;7.30;;;13.60;99.90;;;;;;5087796;28;20111;-56
2023/04/29 08:16:55;;;;;;;12.13;7.60;;;13.60;99.90;;;;;;5070615;28;20151;-58
2023/04/29 08:19:21;;;;;;;8.98;5.88;;;13.60;99.90;;;;;;5087430;28;20028;-57
2023/04/29 08:21:47;;;;;;;9.52;6.70;;;13.60;99.90;;;;;;5090724;28;20035;-58
2023/04/29 08:24:13;;;;;;;10.23;7.38;;;13.50;99.90;;;;;;5074167;28;20024;-57
2023/04/29 08:26:41;;;;;;;10.10;7.82;;;13.40;99.90;;;;;;5088614;28;20032;-57
2023/04/29 08:29:07;;;;;;;5.93;5.13;;;13.30;99.90;;;;;;5073360;28;20024;-55
2023/04/29 08:31:34;;;;;;;6.97;6.25;;;13.20;99.90;;;;;;5089905;28;20131;-59
2023/04/29 08:33:59;;;;;;;7.75;6.10;;;13.20;99.90;;;;;;5072230;28;20023;-57
2023/04/29 08:36:27;;;;;;;11.10;6.65;;;13.20;99.90;;;;;;5090031;28;20419;-57
2023/04/29 08:38:53;;;;;;;9.05;6.00;;;13.30;99.90;;;;;;5070805;28;20518;-57
2023/04/29 08:41:19;;;;;;;7.75;5.68;;;13.30;99.90;;;;;;5089780;28;20024;-54
2023/04/29 08:43:45;;;;;;;7.63;5.40;;;13.20;99.90;;;;;;5066894;28;20489;-57
2023/04/29 08:46:11;;;;;;;7.30;6.00;;;13.20;99.90;;;;;;5069563;28;20112;-56
2023/04/29 08:48:39;;;;;;;7.43;6.35;;;13.20;99.90;;;;;;5087081;28;20027;-56
2023/04/29 08:51:04;;;;;;;8.60;6.05;;;13.10;99.90;;;;;;5090005;28;20028;-60
2023/04/29 08:53:30;;;;;;;6.57;5.70;;;13.10;99.90;;;;;;5069849;28;20165;-57
2023/04/29 08:55:59;;;;;;;5.40;4.82;;;13.10;99.90;;;;;;5086808;28;20029;-58
2023/04/29 08:58:28;;;;;;;5.20;4.38;;;13.00;99.90;;;;;;5068870;28;20124;-56
2023/04/29 09:00:54;;;;;;;6.43;5.03;;;13.00;99.90;;;;;;5067619;28;20072;-57
2023/04/29 09:03:43;;;;;;;4.95;4.45;;;13.00;99.90;;;;;;5088902;28;20078;-55
2023/04/29 09:06:11;;;;;;;5.70;3.92;;;13.00;99.90;;;;;;5089344;28;20024;-55
2023/04/29 09:08:38;;;;;;;4.40;4.00;;;13.10;99.90;;;;;;5068220;28;20021;-56
2023/04/29 09:11:07;;;;;;;4.60;3.88;;;13.10;99.90;;;;;;5089250;28;20020;-57
2023/04/29 09:13:34;;;;;;;5.43;4.18;;;13.10;99.90;;;;;;5047315;28;20021;-59
2023/04/29 09:15:59;;;;;;;6.30;5.38;;;13.10;99.90;;;;;;5089331;28;20016;-57
2023/04/29 09:18:48;;;;;;;5.55;4.97;;;13.10;99.90;;;;;;5069389;28;20029;-57
2023/04/29 09:21:16;;;;;;;6.43;5.35;;;13.00;99.90;;;;;;5068938;28;20040;-55
2023/04/29 09:23:43;;;;;;;8.88;6.10;;;13.00;99.90;;;;;;5086696;28;20391;-57
2023/04/29 09:26:08;;;;;;;9.13;6.53;;;13.00;99.90;;;;;;5087704;28;20647;-57
2023/04/29 09:28:34;;;;;;;8.15;6.53;;;12.90;99.90;;;;;;5067529;28;20192;-58
2023/04/29 09:31:06;;;;;;;10.18;7.03;;;12.90;99.90;;;;;;5087613;28;20016;-56
2023/04/29 09:33:50;;;;;;;11.70;8.63;;;12.80;99.90;;;;;;5046825;28;20029;-58
2023/04/29 09:36:34;;;;;;;12.98;9.15;;;12.80;99.90;;;;;;5088874;28;20027;-58
2023/04/29 09:39:00;;;;;;;13.85;10.85;;;12.80;99.90;;;;;;5054512;28;20407;-57
2023/04/29 09:41:26;;;;;;;13.95;10.23;;;12.70;99.90;;;;;;5088664;28;20042;-58
2023/04/29 09:44:05;;;;;;;14.23;9.95;;;12.70;99.90;;;;;;5067605;28;20594;-54
2023/04/29 09:46:35;;;;;;;14.65;10.57;;;12.70;99.90;;;;;;5068605;28;20078;-54
2023/04/29 09:49:06;;;;;;;13.20;9.85;;;12.70;99.90;;;;;;5054865;28;20020;-54
2023/04/29 09:51:33;;;;;;;12.20;10.00;;;12.80;99.90;;;;;;5088676;28;20043;-57
2023/04/29 09:54:01;;;;;;;16.50;9.40;;;12.80;99.90;;;;;;5070788;28;20020;-57
2023/04/29 09:56:29;;;;;;;11.65;8.35;;;12.90;99.90;;;;;;5087418;28;20025;-57
2023/04/29 09:58:56;;;;;;;11.02;8.98;;;12.90;99.90;;;;;;5069944;28;20016;-56
2023/04/29 10:01:23;;;;;;;12.80;9.25;;;12.80;99.90;;;;;;5088580;28;20510;-58
2023/04/29 10:03:50;;;;;;;11.40;8.75;;;12.80;99.90;;;;;;5068923;28;20044;-58
2023/04/29 10:06:16;;;;;;;11.25;8.55;;;12.90;99.90;;;;;;5088403;28;20051;-58
2023/04/29 10:08:45;;;;;;;15.45;10.95;;;12.90;99.90;;;;;;5069290;28;20055;-58
2023/04/29 10:11:11;;;;;;;15.00;10.60;;;12.80;99.90;;;;;;5092577;28;20107;-58
2023/04/29 10:13:41;;;;;;;16.42;10.88;;;12.80;99.90;;;;;;5071225;28;20016;-56
2023/04/29 10:16:22;;;;;;;16.20;11.10;;;12.80;99.90;;;;;;5092324;28;20482;-54
2023/04/29 10:18:52;;;;;;;16.55;11.02;;;12.90;99.90;;;;;;5072317;28;20052;-55
2023/04/29 10:21:23;;;;;;;17.42;11.75;;;13.10;99.90;;;;;;5092454;28;20039;-56
2023/04/29 10:23:49;;;;;;;21.38;13.10;;;13.20;99.90;;;;;;5054818;28;20242;-56
2023/04/29 10:26:17;;;;;;;22.42;14.60;;;13.30;99.90;;;;;;5092223;28;20020;-52
2023/04/29 10:28:46;;;;;;;23.55;15.27;;;13.20;99.90;;;;;;5071758;28;20395;-54
2023/04/29 10:31:13;;;;;;;25.30;16.83;;;13.20;99.90;;;;;;5091949;28;20020;-54
2023/04/29 10:33:42;;;;;;;23.27;15.60;;;13.20;99.90;;;;;;5051556;28;20655;-55
2023/04/29 10:36:08;;;;;;;27.42;17.80;;;13.10;99.90;;;;;;5090866;28;20020;-56
2023/04/29 10:38:39;;;;;;;30.95;20.77;;;13.10;99.90;;;;;;5070455;28;20028;-57
2023/04/29 10:41:13;;;;;;;27.88;19.42;;;13.00;99.90;;;;;;5092259;28;20032;-56
2023/04/29 10:43:39;;;;;;;23.13;15.98;;;12.90;99.90;;;;;;5051604;28;20040;-56
2023/04/29 10:46:17;;;;;;;25.45;17.33;;;13.00;99.90;;;;;;5071683;28;20017;-54
2023/04/29 10:48:43;;;;;;;23.77;16.60;;;13.00;99.90;;;;;;5089285;28;20556;-57
2023/04/29 10:51:09;;;;;;;28.73;19.63;;;13.10;99.90;;;;;;5091715;28;20020;-58
2023/04/29 10:53:35;;;;;;;30.23;19.25;;;13.20;99.90;;;;;;5070892;28;20069;-57
2023/04/29 10:56:09;;;;;;;27.10;19.95;;;13.10;99.90;;;;;;5088087;28;20107;-58
2023/04/29 10:58:44;;;;;;;25.38;16.98;;;13.10;99.90;;;;;;5091583;28;20024;-58
2023/04/29 11:01:13;;;;;;;29.38;19.92;;;13.10;99.90;;;;;;5061368;28;20039;-56
2023/04/29 11:03:47;;;;;;;34.42;23.20;;;13.10;99.90;;;;;;5091956;28;20373;-54
2023/04/29 11:06:13;;;;;;;32.33;21.20;;;13.00;99.90;;;;;;5070631;28;20754;-53
2023/04/29 11:08:44;;;;;;;29.95;20.40;;;13.00;99.90;;;;;;5091664;28;20028;-52
2023/04/29 11:11:13;;;;;;;32.33;21.80;;;13.10;99.90;;;;;;5061099;28;20016;-55
2023/04/29 11:13:39;;;;;;;30.33;21.52;;;13.10;99.90;;;;;;5091713;28;20674;-54
2023/04/29 11:16:06;;;;;;;31.92;20.27;;;13.10;99.90;;;;;;5075069;28;20024;-55
2023/04/29 11:18:36;;;;;;;32.30;22.73;;;13.20;99.90;;;;;;5091533;28;20391;-51
2023/04/29 11:21:07;;;;;;;35.40;23.95;;;13.20;99.90;;;;;;5073108;28;20035;-53
2023/04/29 11:23:33;;;;;;;40.15;27.17;;;13.10;99.90;;;;;;5091159;28;20348;-52
2023/04/29 11:26:00;;;;;;;28.80;20.08;;;13.00;99.90;;;;;;5073944;28;20020;-55
2023/04/29 11:28:27;;;;;;;26.98;20.13;;;13.20;99.90;;;;;;5091523;28;20035;-50
2023/04/29 11:30:53;;;;;;;21.98;17.10;;;13.60;99.90;;;;;;5072788;28;20031;-52
2023/04/29 11:33:22;;;;;;;20.67;15.60;;;14.10;99.90;;;;;;5091312;28;20035;-50
2023/04/29 11:35:48;;;;;;;20.65;15.77;;;14.50;99.90;;;;;;5071904;28;20360;-55
2023/04/29 11:38:13;;;;;;;22.70;17.77;;;14.90;99.90;;;;;;5090340;28;20095;-51
2023/04/29 11:40:49;;;;;;;24.73;16.70;;;15.10;96.30;;;;;;5070659;28;20035;-49
2023/04/29 11:43:18;;;;;;;22.35;15.00;;;15.20;96.20;;;;;;5090843;28;20273;-54
2023/04/29 11:45:45;;;;;;;17.90;14.07;;;15.40;97.80;;;;;;5071237;28;20052;-52
2023/04/29 11:48:20;;;;;;;15.07;13.45;;;15.50;96.60;;;;;;5067146;28;20086;-54
2023/04/29 11:50:50;;;;;;;22.42;15.18;;;15.40;96.20;;;;;;5066557;28;20048;-55
2023/04/29 11:53:19;;;;;;;18.73;12.50;;;15.40;94.30;;;;;;5065062;28;20032;-52
2023/04/29 11:55:45;;;;;;;20.98;15.00;;;15.50;94.70;;;;;;5068856;28;20414;-55
2023/04/29 11:58:11;;;;;;;15.55;13.07;;;15.50;94.40;;;;;;5068674;28;20119;-52
2023/04/29 12:00:37;;;;;;;17.92;13.98;;;15.70;94.30;;;;;;5087470;28;20162;-53
2023/04/29 12:03:19;;;;;;;17.90;12.07;;;15.80;93.50;;;;;;5071358;28;20032;-55
2023/04/29 12:05:54;;;;;;;14.93;11.90;;;16.10;90.90;;;;;;5078010;28;20030;-56
2023/04/29 12:08:20;;;;;;;13.55;10.65;;;16.40;91.40;;;;;;5066961;28;20154;-54
2023/04/29 12:10:47;;;;;;;12.73;9.65;;;16.60;90.70;;;;;;5087841;28;20528;-52
2023/04/29 12:13:14;;;;;;;14.82;10.90;;;16.80;88.70;;;;;;5066827;28;20047;-52
2023/04/29 12:15:40;;;;;;;13.50;10.75;;;16.70;86.00;;;;;;5088277;28;20028;-52
2023/04/29 12:18:08;;;;;;;12.35;10.07;;;16.50;82.50;;;;;;5070440;28;20041;-54
2023/04/29 12:20:34;;;;;;;17.67;13.43;;;16.40;84.60;;;;;;5087796;28;20024;-54
2023/04/29 12:23:12;;;;;;;13.90;10.52;;;16.10;82.30;;;;;;5070828;28;20035;-53
2023/04/29 12:25:40;;;;;;;12.20;10.15;;;16.30;80.70;;;;;;5081310;28;20035;-55
2023/04/29 12:28:13;;;;;;;17.30;11.75;;;16.40;84.30;;;;;;5069680;28;20024;-52
2023/04/29 12:30:38;;;;;;;12.50;9.98;;;16.60;82.60;;;;;;5045778;28;20029;-53
2023/04/29 12:33:08;;;;;;;12.88;9.98;;;16.70;81.90;;;;;;5068996;28;20059;-53
2023/04/29 12:35:38;;;;;;;13.43;10.20;;;16.70;81.50;;;;;;5047451;28;20021;-49
2023/04/29 12:38:05;;;;;;;13.73;9.20;;;16.50;76.00;;;;;;5079562;28;20491;-51
2023/04/29 12:40:32;;;;;;;13.95;10.13;;;16.30;79.20;;;;;;5074126;28;20085;-49